Толмачево

СКИДКИ НА СМАРТФОНЫ!

Карта отелей и гостиниц, располагающихся рядом с аэропортом Толмачево :

Толмачево
Новосибирск
Новосибирская область 55° 1' 59.5812" N, 82° 35' 57.0012" E
Код аэродрома ИКАО
UNNT
Код аэродрома RU
УННТ
Координаты
N55.03322° E082.59917°
Превышение над уровнем моря
111
Основная полоса
16/34
Курс магнитный
161,3/341,3
Длина основной ВПП
3607
Ширина основной ВПП
45
Покрытие основной ВПП
Твёрдое
Освещение ВПП
Постоянное
Тип: 
Аэродром
Класс аэродрома: 
Международный
Принадлежность: 
ГА
Статус: 
Действующий
Сайт: 
http://tolmachevo.ru/
Страна: 
Россия
Регион: 
Новосибирская область
Город: 
Новосибирск
Дополнительная информация: 
Оператор: ОАО Международный аэропорт Новосибирск (Толмачёво). Располагает двумя ВПП. По техническим характеристикам летное поле относится к аэродромам класса А. Один из трех аэропортов азиатской части России, имеющих ВПП II категории ICAO. Нкр.=(700)м. Военный индекс: XNNT / ЬННТ.
Схемы аэропортов: 
Погода: 

Авиационная погода в Толмачево

Регион: 
Погода METAR: 
UNNT 091230Z 02004MPS CAVOK 25/14 Q1009 R07/090070 R34/////// NOSIG RMK QFE747/0996
Время наблюдения
2022-08-09T12:30:00Z
Температура C
25.0
Точка росы
14.0
Направление ветра
20
Скорость ветра (узлы)
8
Метео видимость
6.21
Облачность
CAVOK
Нижняя граница облачности (футы)
Явления погоды
Условия полета
VFR
Аэропорт подробнее: 

Скидки на навигаторы!

Найти трансфер

С помощью этой формы Вы можете найти трансфер из аэропорта Толмачево в город, аэропорт или вокзал:

Погода в аэропортах:

Авиационная погода в аэропорту Семей

Регион: 
Погода METAR: 
UASS 091130Z 31004MPS 280V350 9999 -SHRA SCT040CB 24/14 Q1005 NOSIG RMK QFE735/0981
Время наблюдения
2022-08-09T11:30:00Z
Температура C
24.0
Точка росы
14.0
Направление ветра
310
Скорость ветра (узлы)
8
Метео видимость
6.21
Облачность
SCT
Нижняя граница облачности (футы)
4000
Явления погоды
-SHRA
Условия полета
VFR
Аэропорт подробнее: 
SCT – разбросанная отдельная облачность;
-SHRA - слабый ливневой дождь;

Авиационная погода в Нижнем Новгороде

Регион: 
Погода METAR: 
UWGG 091230Z 35003MPS 9999 -SHRA SCT040CB 22/21 Q1020 R36R/190060 TEMPO -TSRA
Время наблюдения
2022-08-09T12:30:00Z
Температура C
22.0
Точка росы
21.0
Направление ветра
350
Скорость ветра (узлы)
6
Метео видимость
6.21
Облачность
SCT
Нижняя граница облачности (футы)
4000
Явления погоды
-SHRA
Условия полета
VFR
Аэропорт подробнее: 
SCT – разбросанная отдельная облачность;
-SHRA - слабый ливневой дождь;

Авиационная погода в Чебоксарах

Регион: 
Погода METAR: 
UWKS 091230Z 00000MPS 9999 VCTS SCT040CB 30/13 Q1019 R06/010060 TEMPO -TSRA RMK QFE749
Время наблюдения
2022-08-09T12:30:00Z
Температура C
30.0
Точка росы
13.0
Направление ветра
0
Скорость ветра (узлы)
0
Метео видимость
6.21
Облачность
SCT
Нижняя граница облачности (футы)
4000
Явления погоды
VCTS
Условия полета
VFR
Аэропорт подробнее: 
SCT – разбросанная отдельная облачность;

Авиационная погода в Тулча

Регион: 
Погода METAR: 
LRTC 091230Z 36015KT 9999 VCTS FEW050CB 32/12 Q1014
Время наблюдения
2022-08-09T12:30:00Z
Температура C
32.0
Точка росы
12.0
Направление ветра
360
Скорость ветра (узлы)
15
Метео видимость
6.21
Облачность
FEW
Нижняя граница облачности (футы)
5000
Явления погоды
VCTS
Условия полета
VFR
FEW – незначительная облачность;